Time;durP1;ratioP1;P1;durP2;ratioP2;P2;SDS_P1;SDS_P2;PMS_P1;PMS_P2;Temp;Humidity;BMP_temperature;BMP_pressure;BME280_temperature;BME280_humidity;BME280_pressure;Samples;Min_cycle;Max_cycle;Signal;HPM_P1;HPM_P2
2023/03/22 00:00:38;;;;;;;2.60;1.27;;;8.90;99.90;;;;;;5070328;28;20415;-67
2023/03/22 00:03:05;;;;;;;1.73;1.10;;;8.90;99.90;;;;;;5069959;28;20439;-67
2023/03/22 00:05:31;;;;;;;2.23;1.07;;;8.90;99.90;;;;;;5070104;28;20443;-67
2023/03/22 00:07:57;;;;;;;1.70;1.20;;;8.90;99.90;;;;;;5069985;28;20478;-67
2023/03/22 00:10:29;;;;;;;1.63;1.00;;;8.80;99.90;;;;;;5069913;28;20485;-67
2023/03/22 00:12:55;;;;;;;2.27;1.13;;;8.80;99.90;;;;;;5058569;28;20833;-67
2023/03/22 00:15:21;;;;;;;2.13;1.17;;;8.80;99.90;;;;;;5070154;28;20411;-67
2023/03/22 00:17:49;;;;;;;9.90;1.30;;;8.70;99.90;;;;;;5070585;28;20177;-67
2023/03/22 00:20:16;;;;;;;2.30;1.23;;;8.70;99.90;;;;;;5070150;28;20419;-68
2023/03/22 00:22:42;;;;;;;2.80;1.17;;;8.60;99.90;;;;;;5069930;28;20435;-67
2023/03/22 00:25:09;;;;;;;2.50;1.10;;;8.60;99.90;;;;;;5070200;28;20419;-67
2023/03/22 00:27:35;;;;;;;4.40;1.00;;;8.50;99.90;;;;;;5069597;28;21010;-67
2023/03/22 00:30:01;;;;;;;4.27;1.33;;;8.50;99.90;;;;;;5069234;28;20419;-67
2023/03/22 00:32:27;;;;;;;3.97;1.20;;;8.50;99.90;;;;;;5068966;28;20177;-68
2023/03/22 00:34:52;;;;;;;7.20;1.80;;;8.50;99.90;;;;;;5069337;28;20420;-67
2023/03/22 00:37:18;;;;;;;6.20;1.17;;;8.60;99.90;;;;;;5069385;28;20189;-67
2023/03/22 00:39:44;;;;;;;2.70;1.30;;;8.50;99.90;;;;;;5069346;28;20181;-67
2023/03/22 00:42:10;;;;;;;2.20;1.20;;;8.50;99.90;;;;;;5068834;28;20249;-67
2023/03/22 00:44:36;;;;;;;2.83;1.50;;;8.40;99.90;;;;;;5068949;28;20530;-67
2023/03/22 00:47:02;;;;;;;2.60;1.47;;;8.40;99.90;;;;;;5068868;28;20223;-67
2023/03/22 00:49:28;;;;;;;2.37;1.10;;;8.30;99.90;;;;;;5069192;28;20892;-67
2023/03/22 00:51:55;;;;;;;2.83;1.40;;;8.20;99.90;;;;;;5068912;28;20420;-67
2023/03/22 00:54:20;;;;;;;2.13;1.00;;;8.20;99.90;;;;;;5069132;28;20419;-67
2023/03/22 00:56:48;;;;;;;2.93;1.73;;;8.20;99.90;;;;;;5069059;28;20418;-67
2023/03/22 00:59:15;;;;;;;2.57;1.57;;;8.10;99.90;;;;;;5068819;28;20181;-67
2023/03/22 01:01:41;;;;;;;2.53;1.30;;;8.00;99.90;;;;;;5068353;28;20530;-67
2023/03/22 01:04:06;;;;;;;2.37;1.10;;;8.00;99.90;;;;;;5069386;28;20542;-67
2023/03/22 01:06:33;;;;;;;2.90;1.40;;;7.90;99.90;;;;;;5069633;28;21053;-68
2023/03/22 01:08:59;;;;;;;1.93;1.03;;;7.80;99.90;;;;;;5069122;28;20193;-67
2023/03/22 01:11:25;;;;;;;9.03;1.47;;;7.70;99.90;;;;;;5068132;28;20416;-67
2023/03/22 01:13:51;;;;;;;1.87;1.37;;;7.60;99.90;;;;;;5067939;28;20189;-68
2023/03/22 01:16:17;;;;;;;4.53;2.17;;;7.50;99.90;;;;;;5068797;28;20763;-67
2023/03/22 01:18:42;;;;;;;2.80;1.67;;;7.50;99.90;;;;;;5068717;28;20439;-67
2023/03/22 01:21:08;;;;;;;3.13;1.80;;;7.50;99.90;;;;;;5069024;28;20176;-67
2023/03/22 01:23:34;;;;;;;1.90;1.00;;;7.40;99.90;;;;;;5068375;28;20177;-67
2023/03/22 01:26:00;;;;;;;4.73;1.57;;;7.40;99.90;;;;;;5069083;28;20173;-67
2023/03/22 01:28:26;;;;;;;2.63;1.40;;;7.30;99.90;;;;;;5068149;28;20664;-67
2023/03/22 01:30:52;;;;;;;2.13;1.07;;;7.30;99.90;;;;;;5069216;28;20407;-68
2023/03/22 01:33:18;;;;;;;3.53;1.43;;;7.10;99.90;;;;;;5068807;28;20515;-67
2023/03/22 01:35:44;;;;;;;1.87;1.30;;;7.10;99.90;;;;;;5069480;28;20200;-68
2023/03/22 01:38:09;;;;;;;3.30;1.40;;;7.10;99.90;;;;;;5069264;28;20197;-67
2023/03/22 01:40:35;;;;;;;3.20;1.40;;;7.00;99.90;;;;;;5069609;28;20181;-67
2023/03/22 01:43:01;;;;;;;3.73;1.63;;;6.90;99.90;;;;;;5067987;28;20177;-67
2023/03/22 01:45:33;;;;;;;5.10;1.87;;;6.90;99.90;;;;;;5071252;28;20545;-67
2023/03/22 01:48:11;;;;;;;4.03;1.80;;;6.90;99.90;;;;;;5073007;28;20311;-67
2023/03/22 01:50:41;;;;;;;2.87;1.20;;;6.80;99.90;;;;;;5073374;28;20451;-67
2023/03/22 01:53:09;;;;;;;3.43;1.40;;;6.70;99.90;;;;;;5072723;28;20411;-67
2023/03/22 01:55:36;;;;;;;3.40;1.37;;;6.70;99.90;;;;;;5073082;28;20782;-67
2023/03/22 01:58:03;;;;;;;3.60;1.47;;;6.70;99.90;;;;;;5072108;28;20438;-67
2023/03/22 02:00:29;;;;;;;4.90;1.13;;;6.70;99.90;;;;;;5072061;28;20490;-67
2023/03/22 02:02:55;;;;;;;2.10;1.27;;;6.60;99.90;;;;;;5071738;28;20503;-67
2023/03/22 02:05:21;;;;;;;4.87;1.33;;;6.60;99.90;;;;;;5072708;28;20423;-68
2023/03/22 02:07:48;;;;;;;9.73;1.40;;;6.50;99.90;;;;;;5072473;28;20457;-67
2023/03/22 02:10:17;;;;;;;2.30;1.20;;;6.50;99.90;;;;;;5072322;28;20447;-67
2023/03/22 02:12:58;;;;;;;1.80;1.10;;;6.50;99.90;;;;;;5071438;28;20559;-67
2023/03/22 02:15:33;;;;;;;2.30;1.40;;;6.50;99.90;;;;;;5072186;28;20435;-67
2023/03/22 02:18:15;;;;;;;4.07;1.83;;;6.40;99.90;;;;;;5072891;28;20866;-67
2023/03/22 02:20:44;;;;;;;3.30;1.50;;;6.40;99.90;;;;;;5072355;28;20419;-67
2023/03/22 02:23:46;;;;;;;2.53;1.50;;;6.30;99.90;;;;;;5071979;28;20411;-67
2023/03/22 02:26:26;;;;;;;3.07;1.53;;;6.30;99.90;;;;;;5072583;28;20415;-67
2023/03/22 02:29:11;;;;;;;3.43;1.77;;;6.30;99.90;;;;;;5071676;28;20423;-67
2023/03/22 02:31:58;;;;;;;2.03;1.33;;;6.30;99.90;;;;;;5071673;28;20415;-67
2023/03/22 02:34:41;;;;;;;2.80;1.37;;;6.30;99.90;;;;;;5072191;28;20415;-67
2023/03/22 02:37:32;;;;;;;3.60;1.70;;;6.20;99.90;;;;;;5072377;28;20494;-67
2023/03/22 02:40:27;;;;;;;2.60;1.60;;;6.30;99.90;;;;;;5072392;28;20431;-67
2023/03/22 02:43:17;;;;;;;2.40;1.27;;;6.30;99.90;;;;;;5071151;28;20430;-67
2023/03/22 02:45:51;;;;;;;3.90;1.83;;;6.30;99.90;;;;;;5071748;28;20502;-67
2023/03/22 02:48:37;;;;;;;2.20;1.37;;;6.30;99.90;;;;;;5071986;28;20538;-67
2023/03/22 02:51:05;;;;;;;2.73;1.80;;;6.30;99.90;;;;;;5071427;28;20427;-67
2023/03/22 02:53:42;;;;;;;2.13;1.40;;;6.30;99.90;;;;;;5071477;28;20940;-67
2023/03/22 02:56:17;;;;;;;3.50;1.10;;;6.20;99.90;;;;;;5070238;28;20777;-67
2023/03/22 02:59:05;;;;;;;4.77;2.10;;;6.20;99.90;;;;;;5061609;28;20407;-67
2023/03/22 03:01:57;;;;;;;3.20;1.60;;;6.10;99.90;;;;;;5071076;28;20439;-67
2023/03/22 03:04:34;;;;;;;4.20;2.10;;;6.10;99.90;;;;;;5065395;28;20435;-67
2023/03/22 03:07:08;;;;;;;3.20;1.63;;;6.10;99.90;;;;;;5071175;28;20455;-67
2023/03/22 03:09:35;;;;;;;3.67;1.70;;;6.10;99.90;;;;;;5070769;28;20419;-67
2023/03/22 03:12:01;;;;;;;3.83;2.07;;;6.10;99.90;;;;;;5070651;28;20443;-68
2023/03/22 03:14:28;;;;;;;2.30;1.57;;;6.00;99.90;;;;;;5070558;28;20914;-67
2023/03/22 03:17:09;;;;;;;4.10;2.10;;;6.10;99.90;;;;;;5070675;28;20555;-67
2023/03/22 03:20:17;;;;;;;2.70;1.60;;;6.10;99.90;;;;;;5071504;28;20422;-67
2023/03/22 03:23:07;;;;;;;2.23;1.17;;;6.20;99.90;;;;;;5062862;28;20531;-67
2023/03/22 03:25:43;;;;;;;3.20;1.43;;;6.40;99.90;;;;;;5071072;28;20469;-67
2023/03/22 03:28:21;;;;;;;2.07;1.30;;;6.30;99.90;;;;;;5070568;28;20807;-67
2023/03/22 03:31:15;;;;;;;2.47;1.30;;;6.40;99.90;;;;;;5070868;28;20410;-67
2023/03/22 03:33:52;;;;;;;2.37;1.50;;;6.40;99.90;;;;;;5070122;28;20408;-67
2023/03/22 03:36:20;;;;;;;2.67;1.50;;;6.50;99.90;;;;;;5070923;28;20548;-67
2023/03/22 03:38:51;;;;;;;3.63;1.63;;;6.50;99.90;;;;;;5070544;28;20428;-68
2023/03/22 03:41:20;;;;;;;2.53;1.53;;;6.60;99.90;;;;;;5070768;28;20407;-67
2023/03/22 03:43:48;;;;;;;2.10;1.30;;;6.70;99.90;;;;;;5069793;28;20840;-67
2023/03/22 03:46:14;;;;;;;4.70;1.70;;;6.80;99.90;;;;;;5070067;28;20414;-67
2023/03/22 03:48:44;;;;;;;4.00;1.57;;;6.90;99.90;;;;;;5070604;28;20466;-67
2023/03/22 03:51:09;;;;;;;3.30;1.80;;;6.80;99.90;;;;;;5070497;28;20503;-68
2023/03/22 03:53:35;;;;;;;2.10;1.50;;;6.90;99.90;;;;;;5069951;28;20963;-67
2023/03/22 03:56:01;;;;;;;3.20;1.40;;;6.90;99.90;;;;;;5070630;28;20173;-67
2023/03/22 03:58:29;;;;;;;5.47;2.40;;;6.80;99.90;;;;;;5065527;28;20675;-68
2023/03/22 04:00:54;;;;;;;4.27;1.87;;;6.90;99.90;;;;;;5065798;28;20251;-67
2023/03/22 04:03:20;;;;;;;3.03;1.37;;;6.80;99.90;;;;;;5069658;28;20431;-68
2023/03/22 04:05:46;;;;;;;3.60;1.93;;;6.70;99.90;;;;;;5070450;28;20177;-67
2023/03/22 04:08:11;;;;;;;2.60;1.67;;;6.70;99.90;;;;;;5069602;28;20243;-68
2023/03/22 04:10:37;;;;;;;4.80;1.97;;;6.70;99.90;;;;;;5070401;28;20173;-68
2023/03/22 04:13:02;;;;;;;3.97;1.63;;;6.60;99.90;;;;;;5069660;28;20181;-67
2023/03/22 04:15:28;;;;;;;3.57;1.50;;;6.70;99.90;;;;;;5070620;28;20641;-67
2023/03/22 04:17:54;;;;;;;1.90;1.30;;;6.70;99.90;;;;;;5070107;28;20169;-67
2023/03/22 04:20:19;;;;;;;2.93;1.40;;;6.70;99.90;;;;;;5070468;28;20586;-67
2023/03/22 04:22:47;;;;;;;5.30;1.30;;;6.70;99.90;;;;;;5069515;28;20652;-67
2023/03/22 04:25:16;;;;;;;2.53;1.67;;;6.70;99.90;;;;;;5070079;28;20274;-67
2023/03/22 04:27:46;;;;;;;5.60;1.53;;;6.60;99.90;;;;;;5069705;28;20463;-67
2023/03/22 04:30:21;;;;;;;2.20;1.50;;;6.60;99.90;;;;;;5070024;28;20412;-67
2023/03/22 04:32:48;;;;;;;5.17;1.83;;;6.50;99.90;;;;;;5069689;28;20419;-67
2023/03/22 04:35:14;;;;;;;3.00;1.33;;;6.50;99.90;;;;;;5070058;28;20828;-67
2023/03/22 04:37:41;;;;;;;2.60;1.30;;;6.50;99.90;;;;;;5070113;28;20748;-67
2023/03/22 04:40:08;;;;;;;3.73;1.70;;;6.50;99.90;;;;;;5070169;28;20891;-67
2023/03/22 04:42:34;;;;;;;2.67;1.20;;;6.50;99.90;;;;;;5069536;28;20485;-67
2023/03/22 04:45:02;;;;;;;2.50;1.80;;;6.50;99.90;;;;;;5069968;28;20488;-67
2023/03/22 04:47:28;;;;;;;6.53;2.47;;;6.60;99.90;;;;;;5069698;28;20562;-67
2023/03/22 04:49:54;;;;;;;3.10;1.57;;;6.60;99.90;;;;;;5070001;28;20541;-67
2023/03/22 04:52:19;;;;;;;3.53;1.30;;;6.70;99.90;;;;;;5069734;28;20248;-67
2023/03/22 04:54:45;;;;;;;5.13;1.67;;;6.80;99.90;;;;;;5070315;28;20173;-67
2023/03/22 04:57:11;;;;;;;5.00;1.77;;;6.80;99.90;;;;;;5070476;28;20200;-67
2023/03/22 04:59:36;;;;;;;2.20;1.30;;;6.90;99.90;;;;;;5069804;28;20197;-68
2023/03/22 05:02:02;;;;;;;3.93;1.43;;;6.80;99.90;;;;;;5069611;28;20204;-67
2023/03/22 05:04:27;;;;;;;3.80;2.10;;;6.90;99.90;;;;;;5070067;28;20533;-67
2023/03/22 05:06:53;;;;;;;4.40;1.47;;;6.90;99.90;;;;;;5070000;28;20189;-67
2023/03/22 05:09:19;;;;;;;2.93;1.60;;;6.80;99.90;;;;;;5069729;28;20378;-67
2023/03/22 05:11:45;;;;;;;2.10;1.10;;;6.80;99.90;;;;;;5069475;28;20260;-67
2023/03/22 05:14:10;;;;;;;9.30;2.07;;;6.80;99.90;;;;;;5069545;28;20181;-67
2023/03/22 05:16:39;;;;;;;3.27;1.90;;;6.80;99.90;;;;;;5069871;28;20251;-68
2023/03/22 05:19:12;;;;;;;4.20;1.33;;;6.80;99.90;;;;;;5069919;28;20180;-67
2023/03/22 05:21:39;;;;;;;2.73;1.63;;;6.80;99.90;;;;;;5073374;28;20879;-67
2023/03/22 05:24:06;;;;;;;1.50;0.87;;;6.90;99.90;;;;;;5073679;28;20706;-67
2023/03/22 05:26:31;;;;;;;3.87;1.60;;;6.90;99.90;;;;;;5073803;28;20632;-69
2023/03/22 05:28:57;;;;;;;5.03;1.57;;;6.90;99.90;;;;;;5073788;28;20423;-68
2023/03/22 05:31:23;;;;;;;8.77;2.30;;;7.00;99.90;;;;;;5074030;28;20593;-68
2023/03/22 05:33:50;;;;;;;4.83;2.03;;;7.00;99.90;;;;;;5072906;28;20447;-68
2023/03/22 05:36:17;;;;;;;4.80;1.77;;;7.00;99.90;;;;;;5073615;28;20185;-68
2023/03/22 05:38:44;;;;;;;2.50;1.40;;;7.00;99.90;;;;;;5073357;28;20833;-68
2023/03/22 05:41:10;;;;;;;6.93;1.90;;;7.00;99.90;;;;;;5073545;28;20424;-68
2023/03/22 05:43:36;;;;;;;2.23;1.27;;;7.10;99.90;;;;;;5072490;28;20510;-69
2023/03/22 05:46:10;;;;;;;3.33;1.17;;;7.00;99.90;;;;;;5073434;28;20422;-68
2023/03/22 05:48:37;;;;;;;2.23;1.43;;;7.00;99.90;;;;;;5060176;28;20548;-69
2023/03/22 05:51:12;;;;;;;6.30;1.90;;;7.00;99.90;;;;;;5073155;28;20430;-69
2023/03/22 05:53:38;;;;;;;2.77;1.50;;;6.90;99.90;;;;;;5072720;28;20490;-68
2023/03/22 05:56:04;;;;;;;2.17;1.37;;;6.90;99.90;;;;;;5073227;28;20418;-68
2023/03/22 05:58:31;;;;;;;4.43;1.60;;;6.90;99.90;;;;;;5072364;28;20422;-68
2023/03/22 06:00:59;;;;;;;5.47;1.60;;;6.90;99.90;;;;;;5072944;28;20465;-68
2023/03/22 06:03:26;;;;;;;2.00;1.07;;;7.00;99.90;;;;;;5072196;28;20435;-68
2023/03/22 06:05:53;;;;;;;10.30;2.50;;;6.90;99.90;;;;;;5073424;28;20411;-68
2023/03/22 06:08:20;;;;;;;4.60;1.50;;;6.90;99.90;;;;;;5072712;28;20562;-68
2023/03/22 06:10:51;;;;;;;3.30;2.10;;;6.90;99.90;;;;;;5072525;28;20423;-68
2023/03/22 06:13:18;;;;;;;3.17;1.20;;;6.90;99.90;;;;;;5071552;28;21025;-69
2023/03/22 06:15:44;;;;;;;5.43;2.07;;;6.90;99.90;;;;;;5072846;28;20423;-68
2023/03/22 06:18:10;;;;;;;4.90;1.70;;;6.90;99.90;;;;;;5072343;28;20420;-67
2023/03/22 06:20:37;;;;;;;4.03;1.97;;;6.80;99.90;;;;;;5072594;28;20461;-67
2023/03/22 06:23:03;;;;;;;6.03;2.67;;;6.80;99.90;;;;;;5072187;28;20174;-67
2023/03/22 06:25:29;;;;;;;2.17;1.30;;;6.70;99.90;;;;;;5072769;28;20416;-67
2023/03/22 06:27:54;;;;;;;6.43;2.20;;;6.70;99.90;;;;;;5071669;28;20201;-67
2023/03/22 06:30:20;;;;;;;8.67;3.23;;;6.80;99.90;;;;;;5071906;28;20173;-67
2023/03/22 06:32:46;;;;;;;11.73;2.20;;;6.80;99.90;;;;;;5071984;28;20188;-67
2023/03/22 06:35:12;;;;;;;2.33;1.30;;;6.90;99.90;;;;;;5072034;28;20423;-68
2023/03/22 06:37:37;;;;;;;2.70;1.43;;;6.90;99.90;;;;;;5072449;28;20177;-66
2023/03/22 06:40:04;;;;;;;2.37;1.20;;;6.90;99.90;;;;;;5072294;28;20181;-67
2023/03/22 06:42:29;;;;;;;6.93;2.83;;;7.00;99.90;;;;;;5071618;28;20184;-67
2023/03/22 06:44:56;;;;;;;20.00;4.70;;;7.00;99.90;;;;;;5071869;28;20758;-67
2023/03/22 06:47:22;;;;;;;16.67;4.17;;;7.20;99.90;;;;;;5072143;28;20213;-66
2023/03/22 06:49:48;;;;;;;9.90;2.70;;;7.30;99.90;;;;;;5071696;28;20553;-67
2023/03/22 06:52:13;;;;;;;4.50;2.33;;;7.40;99.90;;;;;;5070463;28;20417;-66
2023/03/22 06:54:39;;;;;;;12.43;1.53;;;7.50;99.90;;;;;;5070729;28;20185;-66
2023/03/22 06:57:05;;;;;;;6.70;1.37;;;7.60;99.90;;;;;;5071673;28;20504;-66
2023/03/22 06:59:31;;;;;;;1.90;1.00;;;7.80;99.90;;;;;;5070884;28;20415;-66
2023/03/22 07:01:56;;;;;;;2.00;1.00;;;7.90;99.90;;;;;;5071099;28;20196;-66
2023/03/22 07:04:23;;;;;;;3.57;1.40;;;8.10;99.90;;;;;;5071702;28;20184;-66
2023/03/22 07:06:48;;;;;;;2.40;1.20;;;8.20;99.90;;;;;;5071621;28;20169;-66
2023/03/22 07:09:14;;;;;;;1.57;0.97;;;8.40;99.90;;;;;;5071477;28;20453;-66
2023/03/22 07:11:40;;;;;;;2.07;1.37;;;8.80;99.90;;;;;;5070897;28;20230;-66
2023/03/22 07:14:05;;;;;;;3.63;1.77;;;9.00;99.90;;;;;;5070607;28;20184;-66
2023/03/22 07:16:31;;;;;;;2.33;1.33;;;9.30;99.90;;;;;;5071669;28;20210;-67
2023/03/22 07:18:56;;;;;;;3.90;1.50;;;9.50;99.90;;;;;;5071582;28;20585;-67
2023/03/22 07:21:22;;;;;;;1.40;0.80;;;9.80;99.90;;;;;;5071784;28;20177;-66
2023/03/22 07:23:48;;;;;;;3.00;1.57;;;10.20;99.90;;;;;;5071093;28;20243;-66
2023/03/22 07:26:13;;;;;;;2.77;1.27;;;10.40;99.90;;;;;;5071334;28;20197;-67
2023/03/22 07:28:40;;;;;;;1.87;0.90;;;10.80;99.90;;;;;;5070629;28;20208;-67
2023/03/22 07:31:11;;;;;;;3.53;1.17;;;11.10;99.20;;;;;;5071369;28;20175;-67
2023/03/22 07:33:38;;;;;;;4.77;1.27;;;11.90;98.30;;;;;;5070463;28;20532;-67
2023/03/22 07:36:05;;;;;;;4.00;1.33;;;12.30;95.70;;;;;;5071193;28;20446;-67
2023/03/22 07:38:30;;;;;;;1.60;0.70;;;12.70;94.80;;;;;;5071147;28;20415;-67
2023/03/22 07:40:56;;;;;;;3.27;1.30;;;13.20;93.40;;;;;;5070992;28;20419;-67
2023/03/22 07:43:22;;;;;;;5.13;0.80;;;13.60;92.40;;;;;;5069687;28;20517;-67
2023/03/22 07:45:48;;;;;;;2.03;1.03;;;14.20;91.70;;;;;;5071529;28;20173;-65
2023/03/22 07:48:14;;;;;;;2.13;0.87;;;14.70;90.30;;;;;;5070926;28;20208;-65
2023/03/22 07:50:41;;;;;;;3.53;1.37;;;15.40;88.20;;;;;;5071129;28;20418;-65
2023/03/22 07:53:08;;;;;;;2.20;0.70;;;15.70;87.30;;;;;;5070402;28;20199;-65
2023/03/22 07:55:34;;;;;;;3.20;0.70;;;16.30;84.60;;;;;;5070757;28;20498;-65
2023/03/22 07:58:00;;;;;;;4.20;1.50;;;17.10;82.60;;;;;;5070185;28;20488;-67
2023/03/22 08:00:25;;;;;;;1.80;1.10;;;17.50;81.50;;;;;;5071273;28;20868;-67
2023/03/22 08:02:51;;;;;;;2.40;1.57;;;17.40;81.30;;;;;;5070184;28;20693;-67
2023/03/22 08:05:17;;;;;;;3.60;0.80;;;17.40;79.70;;;;;;5071032;28;20576;-67
2023/03/22 08:07:43;;;;;;;1.57;0.80;;;17.40;79.10;;;;;;5070573;28;20201;-67
2023/03/22 08:10:09;;;;;;;3.10;1.00;;;17.20;79.70;;;;;;5070437;28;20258;-67
2023/03/22 08:12:35;;;;;;;2.10;1.00;;;16.80;80.40;;;;;;5069766;28;20185;-68
2023/03/22 08:15:01;;;;;;;1.80;0.80;;;17.00;80.80;;;;;;5070163;28;20414;-67
2023/03/22 08:17:29;;;;;;;7.20;1.00;;;17.20;80.00;;;;;;5070061;28;20180;-67
2023/03/22 08:19:55;;;;;;;2.10;0.90;;;17.30;78.60;;;;;;5070566;28;20419;-67
2023/03/22 08:22:24;;;;;;;4.03;1.20;;;17.30;79.30;;;;;;5069526;28;20462;-67
2023/03/22 08:24:53;;;;;;;2.33;0.97;;;17.90;78.80;;;;;;5070198;28;20414;-67
2023/03/22 08:27:19;;;;;;;3.17;1.20;;;18.10;78.40;;;;;;5070112;28;20527;-67
2023/03/22 08:29:46;;;;;;;2.07;1.07;;;18.60;78.40;;;;;;5069650;28;20407;-68
2023/03/22 08:32:12;;;;;;;2.33;1.30;;;18.70;76.80;;;;;;5069595;28;20498;-67
2023/03/22 08:34:39;;;;;;;4.20;1.60;;;18.30;77.00;;;;;;5070411;28;20419;-67
2023/03/22 08:37:06;;;;;;;1.70;0.77;;;17.60;78.60;;;;;;5069778;28;20176;-67
2023/03/22 08:39:32;;;;;;;3.60;1.20;;;17.50;79.50;;;;;;5070207;28;20434;-67
2023/03/22 08:41:58;;;;;;;2.17;0.90;;;17.20;80.30;;;;;;5069532;28;20430;-67
2023/03/22 08:44:24;;;;;;;2.27;0.90;;;17.20;81.40;;;;;;5069552;28;20430;-67
2023/03/22 08:46:50;;;;;;;1.50;0.60;;;17.70;80.70;;;;;;5069750;28;20238;-67
2023/03/22 08:49:16;;;;;;;1.90;0.90;;;17.60;81.00;;;;;;5070209;28;20853;-67
2023/03/22 08:51:42;;;;;;;1.77;0.70;;;17.20;82.80;;;;;;5069274;28;20204;-67
2023/03/22 08:54:08;;;;;;;1.90;0.70;;;17.50;82.40;;;;;;5070039;28;20177;-67
2023/03/22 08:56:36;;;;;;;1.90;1.00;;;17.70;81.90;;;;;;5074198;28;20225;-68
2023/03/22 08:59:07;;;;;;;2.23;0.97;;;17.80;82.60;;;;;;5073321;28;20442;-68
2023/03/22 09:01:34;;;;;;;2.70;0.90;;;17.80;81.80;;;;;;5073418;28;20446;-67
2023/03/22 09:04:00;;;;;;;2.53;1.00;;;17.30;82.20;;;;;;5073571;28;20415;-67
2023/03/22 09:06:26;;;;;;;1.70;0.90;;;17.10;83.10;;;;;;5073626;28;20488;-67
2023/03/22 09:08:52;;;;;;;2.70;1.00;;;17.20;84.50;;;;;;5073355;28;20706;-67
2023/03/22 09:11:19;;;;;;;3.40;1.40;;;17.70;81.40;;;;;;5074074;28;20616;-67
2023/03/22 09:13:45;;;;;;;1.70;0.70;;;17.60;83.00;;;;;;5072613;28;20496;-67
2023/03/22 09:16:11;;;;;;;2.87;0.93;;;17.70;82.00;;;;;;5073815;28;20501;-67
2023/03/22 09:18:37;;;;;;;1.70;0.70;;;17.90;81.60;;;;;;5073483;28;20418;-67
2023/03/22 09:21:06;;;;;;;4.80;0.87;;;17.60;83.70;;;;;;5060438;28;20177;-67
2023/03/22 09:23:32;;;;;;;2.33;1.10;;;17.50;81.80;;;;;;5072988;28;20426;-67
2023/03/22 09:26:07;;;;;;;1.67;0.63;;;17.40;82.90;;;;;;5073267;28;20425;-67
2023/03/22 09:28:33;;;;;;;2.17;0.73;;;17.00;83.40;;;;;;5072763;28;20498;-67
2023/03/22 09:31:00;;;;;;;3.63;1.13;;;16.80;84.90;;;;;;5072932;28;20419;-67
2023/03/22 09:33:26;;;;;;;1.73;0.80;;;16.70;85.40;;;;;;5072442;28;20419;-67
2023/03/22 09:35:54;;;;;;;1.60;0.80;;;16.70;85.60;;;;;;5073536;28;20797;-67
2023/03/22 09:38:20;;;;;;;1.67;0.90;;;16.40;86.80;;;;;;5073360;28;20196;-67
2023/03/22 09:40:59;;;;;;;1.77;0.80;;;16.30;86.50;;;;;;5073602;28;20484;-67
2023/03/22 09:43:27;;;;;;;2.37;1.13;;;16.50;86.90;;;;;;5072255;28;20418;-67
2023/03/22 09:45:53;;;;;;;2.53;0.90;;;16.60;86.10;;;;;;5072670;28;20468;-67
2023/03/22 09:48:26;;;;;;;3.93;1.07;;;16.70;86.10;;;;;;5072475;28;20458;-67
2023/03/22 09:50:53;;;;;;;1.70;0.77;;;16.60;85.80;;;;;;5073127;28;20622;-67
2023/03/22 09:53:22;;;;;;;1.97;1.10;;;16.30;87.00;;;;;;5072270;28;20915;-67
2023/03/22 09:56:10;;;;;;;3.40;1.00;;;16.40;88.80;;;;;;5073215;28;20552;-67
2023/03/22 09:58:42;;;;;;;2.60;1.20;;;16.10;85.90;;;;;;5059574;28;20422;-66
2023/03/22 10:01:15;;;;;;;1.73;0.73;;;16.00;87.90;;;;;;5066017;28;20893;-67
2023/03/22 10:04:08;;;;;;;1.83;0.93;;;16.00;87.40;;;;;;5069588;28;20470;-67
2023/03/22 10:06:34;;;;;;;1.77;0.97;;;15.70;86.60;;;;;;5068284;28;20423;-67
2023/03/22 10:09:21;;;;;;;2.07;0.80;;;15.60;87.60;;;;;;5072362;28;20558;-67
2023/03/22 10:11:55;;;;;;;1.80;0.70;;;15.50;88.50;;;;;;5072411;28;20283;-67
2023/03/22 10:14:40;;;;;;;1.60;0.73;;;15.80;88.80;;;;;;5071045;28;20434;-67
2023/03/22 10:17:14;;;;;;;1.30;0.50;;;16.00;86.50;;;;;;5071982;28;20447;-67
2023/03/22 10:19:54;;;;;;;1.50;0.63;;;16.20;87.00;;;;;;5072115;28;20411;-67
2023/03/22 10:22:26;;;;;;;2.33;1.00;;;16.30;87.50;;;;;;5072151;28;20420;-67
2023/03/22 10:24:53;;;;;;;2.03;0.70;;;16.30;86.90;;;;;;5072757;28;20436;-67
2023/03/22 10:27:21;;;;;;;1.40;0.60;;;16.20;87.40;;;;;;5072471;28;20490;-67
2023/03/22 10:29:57;;;;;;;1.87;0.60;;;16.40;85.90;;;;;;5071692;28;20522;-67
2023/03/22 10:32:44;;;;;;;1.20;0.50;;;16.50;86.40;;;;;;5071640;28;20415;-67
2023/03/22 10:35:14;;;;;;;1.53;0.80;;;16.60;84.90;;;;;;5072228;28;20426;-66
2023/03/22 10:37:44;;;;;;;1.70;0.70;;;16.70;84.70;;;;;;5072001;28;20473;-67
2023/03/22 10:40:18;;;;;;;2.13;0.73;;;16.70;82.10;;;;;;5071937;28;20864;-67
2023/03/22 10:42:52;;;;;;;1.40;0.57;;;16.70;83.40;;;;;;5071188;28;20430;-66
2023/03/22 10:45:19;;;;;;;3.03;0.70;;;16.70;83.90;;;;;;5071869;28;20891;-66
2023/03/22 10:47:52;;;;;;;1.20;0.50;;;16.80;84.50;;;;;;5071418;28;21153;-67
2023/03/22 10:50:27;;;;;;;1.60;0.67;;;16.90;81.40;;;;;;5071940;28;20447;-67
2023/03/22 10:52:56;;;;;;;2.80;0.70;;;17.10;83.40;;;;;;5071280;28;21100;-66
2023/03/22 10:55:24;;;;;;;1.83;0.70;;;17.40;80.90;;;;;;5071660;28;20426;-66
2023/03/22 10:58:10;;;;;;;9.97;0.70;;;17.40;80.30;;;;;;5071371;28;20427;-67
2023/03/22 11:00:36;;;;;;;3.77;0.90;;;17.30;80.30;;;;;;5064538;28;20894;-66
2023/03/22 11:03:05;;;;;;;2.13;0.73;;;17.40;80.80;;;;;;5070931;28;20454;-66
2023/03/22 11:05:31;;;;;;;1.80;0.80;;;17.20;79.80;;;;;;5071735;28;20527;-67
2023/03/22 11:07:57;;;;;;;1.80;0.73;;;17.30;79.90;;;;;;5071013;28;20589;-66
2023/03/22 11:10:33;;;;;;;5.20;0.70;;;17.40;80.30;;;;;;5071967;28;20503;-67
2023/03/22 11:13:08;;;;;;;1.70;0.60;;;17.60;78.20;;;;;;5060940;28;20767;-66
2023/03/22 11:15:37;;;;;;;2.57;0.70;;;17.50;78.80;;;;;;5071477;28;20417;-66
2023/03/22 11:18:12;;;;;;;1.40;0.60;;;17.40;77.10;;;;;;5070226;28;20423;-66
2023/03/22 11:20:40;;;;;;;1.97;0.83;;;17.40;79.30;;;;;;5071523;28;20969;-66
2023/03/22 11:23:10;;;;;;;1.40;0.50;;;17.70;79.40;;;;;;5070804;28;20416;-67
2023/03/22 11:25:42;;;;;;;1.67;0.70;;;17.90;79.10;;;;;;5071262;28;20451;-67
2023/03/22 11:28:19;;;;;;;2.33;0.70;;;17.90;76.10;;;;;;5070451;28;20455;-67
2023/03/22 11:31:03;;;;;;;1.40;0.50;;;18.10;77.90;;;;;;5067872;28;20403;-67
2023/03/22 11:33:29;;;;;;;2.90;0.80;;;18.50;78.60;;;;;;5070371;28;20423;-67
2023/03/22 11:35:58;;;;;;;1.70;0.67;;;18.60;76.70;;;;;;5070873;28;20496;-67
2023/03/22 11:38:35;;;;;;;1.50;0.60;;;18.60;74.40;;;;;;5070748;28;20419;-67
2023/03/22 11:41:06;;;;;;;7.87;0.80;;;18.50;74.30;;;;;;5070978;28;20409;-67
2023/03/22 11:43:36;;;;;;;2.00;0.87;;;18.30;75.30;;;;;;5069857;28;20472;-67
2023/03/22 11:46:03;;;;;;;1.97;0.70;;;18.30;75.50;;;;;;5071082;28;20480;-67
2023/03/22 11:48:30;;;;;;;1.80;0.90;;;18.10;74.80;;;;;;5070302;28;20474;-67
2023/03/22 11:51:45;;;;;;;1.50;0.60;;;18.00;74.80;;;;;;5071093;28;20418;-67
2023/03/22 11:54:38;;;;;;;1.50;0.70;;;17.60;74.50;;;;;;5067481;28;20511;-66
2023/03/22 11:57:08;;;;;;;1.40;0.60;;;17.40;74.40;;;;;;5058944;28;20477;-66
2023/03/22 11:59:58;;;;;;;1.50;0.63;;;17.30;75.00;;;;;;5069943;28;20906;-66
2023/03/22 12:02:31;;;;;;;1.97;0.83;;;17.50;77.20;;;;;;5070052;28;20466;-66
2023/03/22 12:05:08;;;;;;;1.37;0.57;;;17.70;77.40;;;;;;5070811;28;20462;-67
2023/03/22 12:07:36;;;;;;;1.40;0.50;;;18.00;74.10;;;;;;5070247;28;20459;-66
2023/03/22 12:10:20;;;;;;;1.50;0.63;;;17.80;73.90;;;;;;5070411;28;20474;-66
2023/03/22 12:12:56;;;;;;;1.70;0.70;;;17.60;73.70;;;;;;5069432;28;20952;-67
2023/03/22 12:15:26;;;;;;;2.13;1.00;;;17.70;76.40;;;;;;5070108;28;20422;-68
2023/03/22 12:17:59;;;;;;;1.30;0.57;;;17.60;75.20;;;;;;5070107;28;20488;-69
2023/03/22 12:20:39;;;;;;;10.23;1.10;;;17.80;73.80;;;;;;5070298;28;20419;-69
2023/03/22 12:23:14;;;;;;;2.67;0.80;;;18.00;74.40;;;;;;5060350;28;20427;-68
2023/03/22 12:25:45;;;;;;;1.50;0.53;;;18.20;72.90;;;;;;5070101;28;20426;-68
2023/03/22 12:28:16;;;;;;;4.30;0.93;;;18.10;73.00;;;;;;5069549;28;20470;-68
2023/03/22 12:30:47;;;;;;;2.03;0.73;;;18.20;72.40;;;;;;5069939;28;20745;-68
2023/03/22 12:33:44;;;;;;;1.53;0.70;;;18.20;73.70;;;;;;5069392;28;20438;-68
2023/03/22 12:36:15;;;;;;;1.20;0.50;;;18.30;73.30;;;;;;5061595;28;20522;-68
2023/03/22 12:38:53;;;;;;;2.20;1.00;;;18.40;69.60;;;;;;5069761;28;20464;-68
2023/03/22 12:41:26;;;;;;;2.60;0.80;;;18.40;69.70;;;;;;5069738;28;20482;-68
2023/03/22 12:43:55;;;;;;;1.40;0.70;;;18.50;70.80;;;;;;5069159;28;20423;-68
2023/03/22 12:46:28;;;;;;;2.07;0.80;;;18.60;69.50;;;;;;5070456;28;20423;-68
2023/03/22 12:49:31;;;;;;;2.13;0.67;;;18.80;69.70;;;;;;5069696;28;20459;-68
2023/03/22 12:52:16;;;;;;;1.50;0.70;;;18.90;68.70;;;;;;5044270;28;20434;-68
2023/03/22 12:54:43;;;;;;;2.13;1.07;;;19.00;69.70;;;;;;5069632;28;20451;-68
2023/03/22 12:57:10;;;;;;;3.03;0.90;;;19.20;68.40;;;;;;5070186;28;20411;-68
2023/03/22 12:59:36;;;;;;;1.30;0.50;;;19.20;70.50;;;;;;5069176;28;20419;-68
2023/03/22 13:02:12;;;;;;;1.60;0.80;;;19.30;69.10;;;;;;5069114;28;20519;-66
2023/03/22 13:04:37;;;;;;;1.30;0.60;;;19.10;68.40;;;;;;5069646;28;20239;-66
2023/03/22 13:07:12;;;;;;;1.93;0.70;;;19.20;69.80;;;;;;5069958;28;20455;-66